sensor_id;sensor_type;location;lat;lon;timestamp;pressure;altitude;pressure_sealevel;temperature;humidity
58534;BME280;44109;52.398;7.024;2022-08-05T00:01:00;101273.66;;;17.75;90.57
58534;BME280;44109;52.398;7.024;2022-08-05T00:03:27;101280.75;;;18.01;89.59
58534;BME280;44109;52.398;7.024;2022-08-05T00:05:55;101289.50;;;18.17;90.00
58534;BME280;44109;52.398;7.024;2022-08-05T00:08:24;101295.22;;;17.89;90.96
58534;BME280;44109;52.398;7.024;2022-08-05T00:10:51;101266.59;;;18.19;90.65
58534;BME280;44109;52.398;7.024;2022-08-05T00:13:19;101260.84;;;18.40;89.21
58534;BME280;44109;52.398;7.024;2022-08-05T00:15:46;101258.75;;;18.48;88.74
58534;BME280;44109;52.398;7.024;2022-08-05T00:18:14;101254.81;;;18.42;89.53
58534;BME280;44109;52.398;7.024;2022-08-05T00:20:41;101244.38;;;18.39;89.58
58534;BME280;44109;52.398;7.024;2022-08-05T00:23:09;101255.28;;;18.33;91.00
58534;BME280;44109;52.398;7.024;2022-08-05T00:25:38;101269.28;;;18.40;90.72
58534;BME280;44109;52.398;7.024;2022-08-05T00:28:05;101276.16;;;18.32;91.21
58534;BME280;44109;52.398;7.024;2022-08-05T00:30:33;101279.72;;;18.40;90.96
58534;BME280;44109;52.398;7.024;2022-08-05T00:33:00;101270.91;;;18.34;91.31
58534;BME280;44109;52.398;7.024;2022-08-05T00:35:28;101266.91;;;18.35;90.86
58534;BME280;44109;52.398;7.024;2022-08-05T00:37:56;101258.06;;;18.37;90.33
58534;BME280;44109;52.398;7.024;2022-08-05T00:40:27;101266.09;;;18.35;90.15
58534;BME280;44109;52.398;7.024;2022-08-05T00:42:59;101277.38;;;18.31;90.07
58534;BME280;44109;52.398;7.024;2022-08-05T00:45:28;101277.94;;;18.05;91.54
58534;BME280;44109;52.398;7.024;2022-08-05T00:47:56;101285.22;;;17.84;92.20
58534;BME280;44109;52.398;7.024;2022-08-05T00:50:23;101292.94;;;17.59;94.92
58534;BME280;44109;52.398;7.024;2022-08-05T00:52:51;101298.03;;;17.96;94.17
58534;BME280;44109;52.398;7.024;2022-08-05T00:55:19;101287.06;;;18.16;93.86
58534;BME280;44109;52.398;7.024;2022-08-05T00:57:46;101291.16;;;18.04;93.33
58534;BME280;44109;52.398;7.024;2022-08-05T01:00:15;101299.19;;;17.98;93.69
58534;BME280;44109;52.398;7.024;2022-08-05T01:02:43;101274.22;;;18.18;93.50
58534;BME280;44109;52.398;7.024;2022-08-05T01:05:10;101258.97;;;18.23;92.71
58534;BME280;44109;52.398;7.024;2022-08-05T01:07:38;101272.03;;;17.81;92.61
58534;BME280;44109;52.398;7.024;2022-08-05T01:10:09;101292.84;;;17.87;93.10
58534;BME280;44109;52.398;7.024;2022-08-05T01:12:49;101288.69;;;18.17;92.71
58534;BME280;44109;52.398;7.024;2022-08-05T01:15:26;101280.56;;;18.30;91.93
58534;BME280;44109;52.398;7.024;2022-08-05T01:18:02;101270.00;;;17.85;91.84
58534;BME280;44109;52.398;7.024;2022-08-05T01:20:37;101288.03;;;17.91;92.70
58534;BME280;44109;52.398;7.024;2022-08-05T01:23:20;101284.66;;;18.18;92.44
58534;BME280;44109;52.398;7.024;2022-08-05T01:26:10;101285.03;;;18.20;92.13
58534;BME280;44109;52.398;7.024;2022-08-05T01:28:52;101281.84;;;18.21;91.60
58534;BME280;44109;52.398;7.024;2022-08-05T01:31:27;101287.22;;;17.91;91.27
58534;BME280;44109;52.398;7.024;2022-08-05T01:34:09;101286.44;;;17.87;91.98
58534;BME280;44109;52.398;7.024;2022-08-05T01:36:43;101276.69;;;18.13;91.89
58534;BME280;44109;52.398;7.024;2022-08-05T01:39:16;101268.50;;;18.36;91.51
58534;BME280;44109;52.398;7.024;2022-08-05T01:41:46;101257.16;;;18.50;90.86
58534;BME280;44109;52.398;7.024;2022-08-05T01:44:17;101259.50;;;18.56;90.34
58534;BME280;44109;52.398;7.024;2022-08-05T01:46:47;101257.09;;;18.58;90.23
58534;BME280;44109;52.398;7.024;2022-08-05T01:49:20;101253.88;;;18.59;90.26
58534;BME280;44109;52.398;7.024;2022-08-05T01:51:52;101265.41;;;18.16;91.23
58534;BME280;44109;52.398;7.024;2022-08-05T01:54:26;101277.59;;;17.92;91.71
58534;BME280;44109;52.398;7.024;2022-08-05T01:56:59;101276.25;;;18.14;91.69
58534;BME280;44109;52.398;7.024;2022-08-05T01:59:31;101293.28;;;17.82;92.62
58534;BME280;44109;52.398;7.024;2022-08-05T02:02:03;101295.63;;;17.94;92.27
58534;BME280;44109;52.398;7.024;2022-08-05T02:04:34;101286.34;;;18.01;92.29
58534;BME280;44109;52.398;7.024;2022-08-05T02:07:04;101296.09;;;17.75;92.77
58534;BME280;44109;52.398;7.024;2022-08-05T02:09:31;101296.47;;;17.84;93.84
58534;BME280;44109;52.398;7.024;2022-08-05T02:12:02;101286.06;;;17.81;94.23
58534;BME280;44109;52.398;7.024;2022-08-05T02:14:39;101286.44;;;17.83;93.36
58534;BME280;44109;52.398;7.024;2022-08-05T02:17:18;101286.84;;;17.71;93.73
58534;BME280;44109;52.398;7.024;2022-08-05T02:19:59;101290.41;;;17.93;92.98
58534;BME280;44109;52.398;7.024;2022-08-05T02:22:32;101288.81;;;17.88;92.86
58534;BME280;44109;52.398;7.024;2022-08-05T02:25:10;101282.25;;;18.16;92.74
58534;BME280;44109;52.398;7.024;2022-08-05T02:27:40;101286.44;;;17.87;93.04
58534;BME280;44109;52.398;7.024;2022-08-05T02:30:15;101290.81;;;17.91;93.09
58534;BME280;44109;52.398;7.024;2022-08-05T02:32:48;101289.41;;;18.28;91.95
58534;BME280;44109;52.398;7.024;2022-08-05T02:35:21;101293.47;;;18.20;92.25
58534;BME280;44109;52.398;7.024;2022-08-05T02:37:53;101287.13;;;18.12;91.94
58534;BME280;44109;52.398;7.024;2022-08-05T02:40:23;101299.50;;;18.18;91.78
58534;BME280;44109;52.398;7.024;2022-08-05T02:42:53;101299.09;;;18.16;90.98
58534;BME280;44109;52.398;7.024;2022-08-05T02:45:24;101298.97;;;18.38;90.86
58534;BME280;44109;52.398;7.024;2022-08-05T02:47:55;101316.47;;;18.60;90.84
58534;BME280;44109;52.398;7.024;2022-08-05T02:50:26;101310.81;;;18.67;90.60
58534;BME280;44109;52.398;7.024;2022-08-05T02:52:56;101330.38;;;18.22;89.72
58534;BME280;44109;52.398;7.024;2022-08-05T02:55:24;101326.78;;;18.18;91.11
58534;BME280;44109;52.398;7.024;2022-08-05T02:57:53;101330.41;;;18.15;91.08
58534;BME280;44109;52.398;7.024;2022-08-05T03:00:24;101342.41;;;18.22;91.34
58534;BME280;44109;52.398;7.024;2022-08-05T03:02:56;101338.44;;;18.13;90.82
58534;BME280;44109;52.398;7.024;2022-08-05T03:05:25;101339.94;;;18.32;91.01
58534;BME280;44109;52.398;7.024;2022-08-05T03:07:53;101335.03;;;18.50;90.92
58534;BME280;44109;52.398;7.024;2022-08-05T03:10:21;101333.72;;;18.69;90.69
58534;BME280;44109;52.398;7.024;2022-08-05T03:12:51;101334.28;;;18.39;90.85
58534;BME280;44109;52.398;7.024;2022-08-05T03:15:19;101345.31;;;17.94;93.30
58534;BME280;44109;52.398;7.024;2022-08-05T03:17:49;101351.44;;;17.74;95.95
58534;BME280;44109;52.398;7.024;2022-08-05T03:20:16;101350.50;;;18.03;95.35
58534;BME280;44109;52.398;7.024;2022-08-05T03:22:44;101344.78;;;18.31;93.80
58534;BME280;44109;52.398;7.024;2022-08-05T03:25:12;101347.19;;;18.25;93.44
58534;BME280;44109;52.398;7.024;2022-08-05T03:27:40;101347.94;;;18.37;92.76
58534;BME280;44109;52.398;7.024;2022-08-05T03:30:09;101343.19;;;18.23;93.88
58534;BME280;44109;52.398;7.024;2022-08-05T03:32:38;101318.38;;;18.18;93.93
58534;BME280;44109;52.398;7.024;2022-08-05T03:35:07;101308.09;;;18.52;93.07
58534;BME280;44109;52.398;7.024;2022-08-05T03:37:35;101298.03;;;18.59;92.81
58534;BME280;44109;52.398;7.024;2022-08-05T03:40:04;101297.97;;;18.66;92.63
58534;BME280;44109;52.398;7.024;2022-08-05T03:42:33;101289.94;;;18.71;92.28
58534;BME280;44109;52.398;7.024;2022-08-05T03:45:01;101301.50;;;18.81;91.93
58534;BME280;44109;52.398;7.024;2022-08-05T03:47:29;101292.31;;;18.77;92.19
58534;BME280;44109;52.398;7.024;2022-08-05T03:49:57;101292.66;;;18.23;91.56
58534;BME280;44109;52.398;7.024;2022-08-05T03:52:28;101293.22;;;17.89;94.01
58534;BME280;44109;52.398;7.024;2022-08-05T03:55:02;101285.06;;;18.16;93.64
58534;BME280;44109;52.398;7.024;2022-08-05T03:57:37;101279.41;;;18.23;92.25
58534;BME280;44109;52.398;7.024;2022-08-05T04:00:09;101285.56;;;18.04;94.00
58534;BME280;44109;52.398;7.024;2022-08-05T04:02:41;101277.50;;;18.10;94.27
58534;BME280;44109;52.398;7.024;2022-08-05T04:05:11;101256.09;;;18.30;93.41
58534;BME280;44109;52.398;7.024;2022-08-05T04:07:42;101253.13;;;18.51;92.72
58534;BME280;44109;52.398;7.024;2022-08-05T04:10:10;101242.38;;;18.39;92.59
58534;BME280;44109;52.398;7.024;2022-08-05T04:12:38;101233.06;;;18.53;92.11
58534;BME280;44109;52.398;7.024;2022-08-05T04:15:06;101237.34;;;18.65;91.60
58534;BME280;44109;52.398;7.024;2022-08-05T04:17:34;101251.97;;;18.45;92.01
58534;BME280;44109;52.398;7.024;2022-08-05T04:20:03;101258.84;;;18.37;91.90
58534;BME280;44109;52.398;7.024;2022-08-05T04:22:31;101261.34;;;18.24;92.70
58534;BME280;44109;52.398;7.024;2022-08-05T04:25:00;101266.63;;;18.12;93.01
58534;BME280;44109;52.398;7.024;2022-08-05T04:27:28;101266.78;;;17.90;94.01
58534;BME280;44109;52.398;7.024;2022-08-05T04:29:56;101258.31;;;17.97;94.18
58534;BME280;44109;52.398;7.024;2022-08-05T04:32:24;101259.28;;;18.32;93.13
58534;BME280;44109;52.398;7.024;2022-08-05T04:34:51;101258.84;;;18.41;92.96
58534;BME280;44109;52.398;7.024;2022-08-05T04:37:19;101268.13;;;18.31;92.44
58534;BME280;44109;52.398;7.024;2022-08-05T04:39:46;101261.81;;;18.16;93.33
58534;BME280;44109;52.398;7.024;2022-08-05T04:42:16;101268.31;;;18.02;94.63
58534;BME280;44109;52.398;7.024;2022-08-05T04:44:43;101276.88;;;17.73;95.08
58534;BME280;44109;52.398;7.024;2022-08-05T04:47:11;101272.38;;;17.90;96.25
58534;BME280;44109;52.398;7.024;2022-08-05T04:49:38;101267.03;;;18.17;95.26
58534;BME280;44109;52.398;7.024;2022-08-05T04:52:06;101267.47;;;18.09;94.78
58534;BME280;44109;52.398;7.024;2022-08-05T04:54:33;101279.75;;;18.33;94.47
58534;BME280;44109;52.398;7.024;2022-08-05T04:57:01;101291.53;;;18.10;94.97
58534;BME280;44109;52.398;7.024;2022-08-05T04:59:30;101312.06;;;17.96;96.15
58534;BME280;44109;52.398;7.024;2022-08-05T05:01:57;101320.94;;;17.69;98.00
58534;BME280;44109;52.398;7.024;2022-08-05T05:04:25;101320.97;;;17.66;98.94
58534;BME280;44109;52.398;7.024;2022-08-05T05:06:53;101314.56;;;17.62;98.70
58534;BME280;44109;52.398;7.024;2022-08-05T05:09:20;101311.34;;;17.78;98.79
58534;BME280;44109;52.398;7.024;2022-08-05T05:11:48;101310.03;;;17.96;98.05
58534;BME280;44109;52.398;7.024;2022-08-05T05:14:15;101307.06;;;18.25;96.74
58534;BME280;44109;52.398;7.024;2022-08-05T05:16:44;101307.03;;;18.32;96.42
58534;BME280;44109;52.398;7.024;2022-08-05T05:19:12;101311.88;;;18.28;96.81
58534;BME280;44109;52.398;7.024;2022-08-05T05:21:39;101315.91;;;18.27;96.12
58534;BME280;44109;52.398;7.024;2022-08-05T05:24:07;101313.19;;;18.13;97.25
58534;BME280;44109;52.398;7.024;2022-08-05T05:26:34;101315.13;;;18.19;97.46
58534;BME280;44109;52.398;7.024;2022-08-05T05:29:02;101325.44;;;18.40;96.95
58534;BME280;44109;52.398;7.024;2022-08-05T05:31:29;101318.88;;;18.61;95.96
58534;BME280;44109;52.398;7.024;2022-08-05T05:33:58;101336.97;;;18.57;96.26
58534;BME280;44109;52.398;7.024;2022-08-05T05:36:26;101351.44;;;18.55;96.22
58534;BME280;44109;52.398;7.024;2022-08-05T05:38:53;101358.56;;;18.74;96.14
58534;BME280;44109;52.398;7.024;2022-08-05T05:41:21;101366.84;;;18.95;95.47
58534;BME280;44109;52.398;7.024;2022-08-05T05:43:49;101364.72;;;19.07;95.29
58534;BME280;44109;52.398;7.024;2022-08-05T05:46:17;101357.03;;;19.14;95.17
58534;BME280;44109;52.398;7.024;2022-08-05T05:48:45;101352.16;;;19.22;95.01
58534;BME280;44109;52.398;7.024;2022-08-05T05:51:19;101352.97;;;19.19;94.80
58534;BME280;44109;52.398;7.024;2022-08-05T05:53:47;101342.78;;;18.91;95.05
58534;BME280;44109;52.398;7.024;2022-08-05T05:56:15;101339.31;;;18.72;95.62
58534;BME280;44109;52.398;7.024;2022-08-05T05:58:45;101338.09;;;18.66;96.55
58534;BME280;44109;52.398;7.024;2022-08-05T06:01:13;101331.50;;;18.94;96.30
58534;BME280;44109;52.398;7.024;2022-08-05T06:03:41;101335.78;;;19.10;95.89
58534;BME280;44109;52.398;7.024;2022-08-05T06:06:09;101328.22;;;19.03;95.08
58534;BME280;44109;52.398;7.024;2022-08-05T06:08:38;101329.19;;;18.82;95.07
58534;BME280;44109;52.398;7.024;2022-08-05T06:11:05;101321.69;;;18.61;95.43
58534;BME280;44109;52.398;7.024;2022-08-05T06:13:34;101322.88;;;18.64;95.72
58534;BME280;44109;52.398;7.024;2022-08-05T06:16:02;101338.91;;;18.70;95.04
58534;BME280;44109;52.398;7.024;2022-08-05T06:18:29;101350.09;;;18.78;95.38
58534;BME280;44109;52.398;7.024;2022-08-05T06:20:58;101358.78;;;18.94;94.91
58534;BME280;44109;52.398;7.024;2022-08-05T06:23:26;101366.72;;;19.10;94.63
58534;BME280;44109;52.398;7.024;2022-08-05T06:25:55;101354.00;;;18.94;94.66
58534;BME280;44109;52.398;7.024;2022-08-05T06:28:22;101360.31;;;19.06;94.42
58534;BME280;44109;52.398;7.024;2022-08-05T06:30:53;101358.56;;;19.22;93.73
58534;BME280;44109;52.398;7.024;2022-08-05T06:33:20;101362.03;;;19.37;93.63
58534;BME280;44109;52.398;7.024;2022-08-05T06:35:48;101365.97;;;19.47;93.84
58534;BME280;44109;52.398;7.024;2022-08-05T06:38:15;101367.25;;;19.39;93.84
58534;BME280;44109;52.398;7.024;2022-08-05T06:40:43;101366.22;;;19.22;93.26
58534;BME280;44109;52.398;7.024;2022-08-05T06:43:12;101371.25;;;19.41;93.36
58534;BME280;44109;52.398;7.024;2022-08-05T06:45:40;101373.47;;;19.57;93.11
58534;BME280;44109;52.398;7.024;2022-08-05T06:48:07;101372.66;;;19.64;92.74
58534;BME280;44109;52.398;7.024;2022-08-05T06:50:35;101345.66;;;19.66;92.44
58534;BME280;44109;52.398;7.024;2022-08-05T06:53:03;101355.59;;;19.78;91.85
58534;BME280;44109;52.398;7.024;2022-08-05T06:55:30;101360.56;;;19.67;91.42
58534;BME280;44109;52.398;7.024;2022-08-05T06:57:58;101373.16;;;19.51;91.63
58534;BME280;44109;52.398;7.024;2022-08-05T07:00:27;101381.06;;;19.22;91.54
58534;BME280;44109;52.398;7.024;2022-08-05T07:02:56;101377.22;;;19.47;92.09
58534;BME280;44109;52.398;7.024;2022-08-05T07:05:25;101366.94;;;19.71;92.44
58534;BME280;44109;52.398;7.024;2022-08-05T07:07:52;101351.16;;;19.81;92.62
58534;BME280;44109;52.398;7.024;2022-08-05T07:10:20;101356.16;;;20.00;92.99
58534;BME280;44109;52.398;7.024;2022-08-05T07:12:50;101364.03;;;20.12;93.45
58534;BME280;44109;52.398;7.024;2022-08-05T07:15:36;101368.81;;;20.15;93.33
58534;BME280;44109;52.398;7.024;2022-08-05T07:18:21;101367.50;;;19.93;92.37
58534;BME280;44109;52.398;7.024;2022-08-05T07:20:49;101377.50;;;19.60;91.87
58534;BME280;44109;52.398;7.024;2022-08-05T07:23:17;101380.34;;;19.56;92.93
58534;BME280;44109;52.398;7.024;2022-08-05T07:25:44;101386.06;;;19.87;93.08
58534;BME280;44109;52.398;7.024;2022-08-05T07:28:12;101382.34;;;19.93;92.78
58534;BME280;44109;52.398;7.024;2022-08-05T07:30:41;101390.94;;;20.17;92.39
58534;BME280;44109;52.398;7.024;2022-08-05T07:33:10;101399.41;;;19.79;92.48
58534;BME280;44109;52.398;7.024;2022-08-05T07:35:38;101396.91;;;19.88;92.63
58534;BME280;44109;52.398;7.024;2022-08-05T07:38:06;101391.34;;;20.15;92.56
58534;BME280;44109;52.398;7.024;2022-08-05T07:40:34;101395.03;;;19.74;92.91
58534;BME280;44109;52.398;7.024;2022-08-05T07:43:02;101391.94;;;19.65;92.49
58534;BME280;44109;52.398;7.024;2022-08-05T07:45:30;101399.97;;;20.01;93.18
58534;BME280;44109;52.398;7.024;2022-08-05T07:47:59;101404.38;;;20.02;91.94
58534;BME280;44109;52.398;7.024;2022-08-05T07:50:26;101392.25;;;20.09;92.63
58534;BME280;44109;52.398;7.024;2022-08-05T07:52:57;101391.19;;;19.95;90.99
58534;BME280;44109;52.398;7.024;2022-08-05T07:55:24;101401.72;;;19.91;92.06
58534;BME280;44109;52.398;7.024;2022-08-05T07:57:52;101407.47;;;20.15;92.77
58534;BME280;44109;52.398;7.024;2022-08-05T08:00:19;101411.06;;;19.81;93.16
58534;BME280;44109;52.398;7.024;2022-08-05T08:02:47;101418.81;;;20.08;93.51
58534;BME280;44109;52.398;7.024;2022-08-05T08:05:16;101417.94;;;20.14;92.16
58534;BME280;44109;52.398;7.024;2022-08-05T08:07:44;101416.47;;;20.33;92.13
58534;BME280;44109;52.398;7.024;2022-08-05T08:10:12;101419.97;;;19.76;92.76
58534;BME280;44109;52.398;7.024;2022-08-05T08:12:40;101423.91;;;19.86;93.75
58534;BME280;44109;52.398;7.024;2022-08-05T08:15:09;101422.50;;;19.67;93.47
58534;BME280;44109;52.398;7.024;2022-08-05T08:17:37;101429.78;;;19.98;93.57
58534;BME280;44109;52.398;7.024;2022-08-05T08:20:05;101419.41;;;20.26;93.92
58534;BME280;44109;52.398;7.024;2022-08-05T08:22:35;101435.06;;;20.61;93.99
58534;BME280;44109;52.398;7.024;2022-08-05T08:25:03;101424.66;;;20.58;92.07
58534;BME280;44109;52.398;7.024;2022-08-05T08:27:32;101420.84;;;20.38;91.84
58534;BME280;44109;52.398;7.024;2022-08-05T08:29:59;101416.94;;;20.28;92.79
58534;BME280;44109;52.398;7.024;2022-08-05T08:32:26;101427.09;;;20.22;92.67
58534;BME280;44109;52.398;7.024;2022-08-05T08:34:54;101418.31;;;20.47;92.81
58534;BME280;44109;52.398;7.024;2022-08-05T08:37:21;101422.56;;;20.32;90.75
58534;BME280;44109;52.398;7.024;2022-08-05T08:39:50;101419.97;;;20.44;89.81
58534;BME280;44109;52.398;7.024;2022-08-05T08:42:18;101418.31;;;20.50;90.12
58534;BME280;44109;52.398;7.024;2022-08-05T08:44:49;101428.25;;;20.59;90.91
58534;BME280;44109;52.398;7.024;2022-08-05T08:47:22;101436.59;;;20.66;89.64
58534;BME280;44109;52.398;7.024;2022-08-05T08:49:53;101437.66;;;20.48;87.45
58534;BME280;44109;52.398;7.024;2022-08-05T08:52:23;101436.03;;;20.47;87.98
58534;BME280;44109;52.398;7.024;2022-08-05T08:54:53;101442.84;;;20.81;88.48
58534;BME280;44109;52.398;7.024;2022-08-05T08:57:21;101437.78;;;20.95;87.16
58534;BME280;44109;52.398;7.024;2022-08-05T08:59:50;101438.00;;;21.35;90.45
58534;BME280;44109;52.398;7.024;2022-08-05T09:02:19;101438.00;;;21.59;88.09
58534;BME280;44109;52.398;7.024;2022-08-05T09:04:47;101438.34;;;21.10;83.72
58534;BME280;44109;52.398;7.024;2022-08-05T09:07:15;101435.28;;;21.01;84.53
58534;BME280;44109;52.398;7.024;2022-08-05T09:09:43;101444.84;;;21.07;84.00
58534;BME280;44109;52.398;7.024;2022-08-05T09:12:12;101449.81;;;21.73;83.33
58534;BME280;44109;52.398;7.024;2022-08-05T09:14:39;101457.84;;;21.98;81.49
58534;BME280;44109;52.398;7.024;2022-08-05T09:17:09;101461.44;;;21.28;81.03
58534;BME280;44109;52.398;7.024;2022-08-05T09:19:38;101451.97;;;21.66;83.13
58534;BME280;44109;52.398;7.024;2022-08-05T09:22:06;101459.38;;;22.43;84.68
58534;BME280;44109;52.398;7.024;2022-08-05T09:24:34;101463.28;;;22.29;78.00
58534;BME280;44109;52.398;7.024;2022-08-05T09:27:07;101465.59;;;21.47;78.84
58534;BME280;44109;52.398;7.024;2022-08-05T09:29:40;101469.38;;;22.27;76.97
58534;BME280;44109;52.398;7.024;2022-08-05T09:32:12;101461.84;;;22.21;76.69
58534;BME280;44109;52.398;7.024;2022-08-05T09:34:47;101466.94;;;22.66;77.70
58534;BME280;44109;52.398;7.024;2022-08-05T09:37:20;101469.97;;;22.19;74.07
58534;BME280;44109;52.398;7.024;2022-08-05T09:39:50;101487.44;;;22.53;80.87
58534;BME280;44109;52.398;7.024;2022-08-05T09:42:19;101484.75;;;23.02;73.65
58534;BME280;44109;52.398;7.024;2022-08-05T09:44:51;101482.44;;;22.97;75.75
58534;BME280;44109;52.398;7.024;2022-08-05T09:47:21;101479.41;;;22.12;73.05
58534;BME280;44109;52.398;7.024;2022-08-05T09:49:51;101488.19;;;21.47;77.45
58534;BME280;44109;52.398;7.024;2022-08-05T09:52:22;101491.63;;;21.59;77.83
58534;BME280;44109;52.398;7.024;2022-08-05T09:54:55;101490.16;;;21.74;76.16
58534;BME280;44109;52.398;7.024;2022-08-05T09:57:32;101488.25;;;21.67;74.57
58534;BME280;44109;52.398;7.024;2022-08-05T10:00:06;101487.78;;;21.92;74.96
58534;BME280;44109;52.398;7.024;2022-08-05T10:02:39;101494.31;;;21.89;74.14
58534;BME280;44109;52.398;7.024;2022-08-05T10:05:11;101492.47;;;21.79;72.35
58534;BME280;44109;52.398;7.024;2022-08-05T10:07:48;101495.19;;;21.39;74.18
58534;BME280;44109;52.398;7.024;2022-08-05T10:10:20;101498.75;;;21.67;72.45
58534;BME280;44109;52.398;7.024;2022-08-05T10:12:52;101500.59;;;21.53;70.62
58534;BME280;44109;52.398;7.024;2022-08-05T10:15:24;101493.97;;;21.64;69.24
58534;BME280;44109;52.398;7.024;2022-08-05T10:18:09;101489.47;;;22.33;68.99
58534;BME280;44109;52.398;7.024;2022-08-05T10:20:42;101496.66;;;21.94;69.98
58534;BME280;44109;52.398;7.024;2022-08-05T10:23:13;101492.91;;;22.21;70.54
58534;BME280;44109;52.398;7.024;2022-08-05T10:25:41;101501.53;;;22.73;68.87
58534;BME280;44109;52.398;7.024;2022-08-05T10:28:09;101489.91;;;23.24;67.27
58534;BME280;44109;52.398;7.024;2022-08-05T10:30:38;101491.75;;;22.78;68.64
58534;BME280;44109;52.398;7.024;2022-08-05T10:33:06;101502.03;;;22.88;67.33
58534;BME280;44109;52.398;7.024;2022-08-05T10:35:35;101496.53;;;22.81;67.75
58534;BME280;44109;52.398;7.024;2022-08-05T10:38:04;101495.75;;;23.49;61.37
58534;BME280;44109;52.398;7.024;2022-08-05T10:40:35;101501.44;;;23.49;67.15
58534;BME280;44109;52.398;7.024;2022-08-05T10:43:21;101499.38;;;24.28;68.91
58534;BME280;44109;52.398;7.024;2022-08-05T10:46:00;101495.41;;;23.80;59.76
58534;BME280;44109;52.398;7.024;2022-08-05T10:48:34;101503.06;;;22.78;59.92
58534;BME280;44109;52.398;7.024;2022-08-05T10:51:06;101507.28;;;22.50;58.48
58534;BME280;44109;52.398;7.024;2022-08-05T10:53:41;101513.59;;;22.38;64.49
58534;BME280;44109;52.398;7.024;2022-08-05T10:56:12;101510.47;;;22.32;61.76
58534;BME280;44109;52.398;7.024;2022-08-05T10:59:02;101501.63;;;22.30;62.21
58534;BME280;44109;52.398;7.024;2022-08-05T11:01:36;101513.84;;;22.83;64.13
58534;BME280;44109;52.398;7.024;2022-08-05T11:04:08;101512.63;;;22.84;59.73
58534;BME280;44109;52.398;7.024;2022-08-05T11:07:02;101516.84;;;23.48;60.90
58534;BME280;44109;52.398;7.024;2022-08-05T11:09:46;101516.84;;;22.76;52.54
58534;BME280;44109;52.398;7.024;2022-08-05T11:12:43;101515.91;;;23.19;57.36
58534;BME280;44109;52.398;7.024;2022-08-05T11:15:20;101529.19;;;23.22;56.66
58534;BME280;44109;52.398;7.024;2022-08-05T11:17:51;101535.28;;;22.44;56.04
58534;BME280;44109;52.398;7.024;2022-08-05T11:20:47;101541.47;;;22.16;53.52
58534;BME280;44109;52.398;7.024;2022-08-05T11:23:30;101530.16;;;22.16;52.80
58534;BME280;44109;52.398;7.024;2022-08-05T11:26:06;101542.53;;;22.45;52.05
58534;BME280;44109;52.398;7.024;2022-08-05T11:28:41;101547.44;;;22.41;52.51
58534;BME280;44109;52.398;7.024;2022-08-05T11:31:31;101556.34;;;21.96;49.58
58534;BME280;44109;52.398;7.024;2022-08-05T11:34:07;101559.28;;;22.76;52.57
58534;BME280;44109;52.398;7.024;2022-08-05T11:36:40;101557.00;;;22.87;51.89
58534;BME280;44109;52.398;7.024;2022-08-05T11:39:13;101564.50;;;22.77;47.34
58534;BME280;44109;52.398;7.024;2022-08-05T11:41:49;101550.75;;;23.16;52.23
58534;BME280;44109;52.398;7.024;2022-08-05T11:44:19;101537.00;;;23.50;49.16
58534;BME280;44109;52.398;7.024;2022-08-05T11:46:49;101548.91;;;23.25;41.37
58534;BME280;44109;52.398;7.024;2022-08-05T11:49:21;101556.09;;;22.94;43.68
58534;BME280;44109;52.398;7.024;2022-08-05T11:51:50;101568.41;;;22.84;42.03
58534;BME280;44109;52.398;7.024;2022-08-05T11:54:23;101565.19;;;23.21;44.89
58534;BME280;44109;52.398;7.024;2022-08-05T11:56:52;101573.09;;;22.94;43.71
58534;BME280;44109;52.398;7.024;2022-08-05T11:59:23;101564.38;;;22.85;45.03
58534;BME280;44109;52.398;7.024;2022-08-05T12:01:56;101572.84;;;23.41;42.92
58534;BME280;44109;52.398;7.024;2022-08-05T12:04:28;101562.88;;;23.16;44.50
58534;BME280;44109;52.398;7.024;2022-08-05T12:07:05;101569.22;;;23.40;45.14
58534;BME280;44109;52.398;7.024;2022-08-05T12:09:38;101568.41;;;23.56;42.91
58534;BME280;44109;52.398;7.024;2022-08-05T12:12:07;101578.78;;;23.10;43.97
58534;BME280;44109;52.398;7.024;2022-08-05T12:14:36;101579.38;;;23.38;44.55
58534;BME280;44109;52.398;7.024;2022-08-05T12:17:08;101596.44;;;23.34;43.84
58534;BME280;44109;52.398;7.024;2022-08-05T12:19:42;101588.63;;;23.22;41.19
58534;BME280;44109;52.398;7.024;2022-08-05T12:22:11;101583.00;;;22.62;41.45
58534;BME280;44109;52.398;7.024;2022-08-05T12:24:41;101590.84;;;22.94;42.50
58534;BME280;44109;52.398;7.024;2022-08-05T12:27:17;101593.09;;;23.03;40.55
58534;BME280;44109;52.398;7.024;2022-08-05T12:29:45;101604.25;;;23.10;38.72
58534;BME280;44109;52.398;7.024;2022-08-05T12:32:24;101609.44;;;22.95;38.71
58534;BME280;44109;52.398;7.024;2022-08-05T12:34:53;101613.38;;;23.18;41.43
58534;BME280;44109;52.398;7.024;2022-08-05T12:37:22;101610.16;;;23.72;40.98
58534;BME280;44109;52.398;7.024;2022-08-05T12:39:51;101611.91;;;23.66;37.91
58534;BME280;44109;52.398;7.024;2022-08-05T12:42:20;101612.97;;;24.21;39.59
58534;BME280;44109;52.398;7.024;2022-08-05T12:44:48;101621.31;;;23.95;36.89
58534;BME280;44109;52.398;7.024;2022-08-05T12:47:25;101615.44;;;22.97;38.12
58534;BME280;44109;52.398;7.024;2022-08-05T12:49:55;101626.81;;;23.14;37.66
58534;BME280;44109;52.398;7.024;2022-08-05T12:52:22;101637.00;;;22.91;35.37
58534;BME280;44109;52.398;7.024;2022-08-05T12:54:50;101635.56;;;22.60;37.47
58534;BME280;44109;52.398;7.024;2022-08-05T12:57:20;101629.06;;;23.02;39.62
58534;BME280;44109;52.398;7.024;2022-08-05T12:59:49;101650.03;;;23.61;36.58
58534;BME280;44109;52.398;7.024;2022-08-05T13:02:20;101643.03;;;23.49;37.90
58534;BME280;44109;52.398;7.024;2022-08-05T13:04:51;101658.25;;;23.55;37.40
58534;BME280;44109;52.398;7.024;2022-08-05T13:07:23;101649.22;;;23.24;37.01